createdAt,value
2018-10-03T00:04:28.990Z,99.90
2018-10-03T00:09:33.167Z,99.90
2018-10-03T00:14:37.429Z,99.90
2018-10-03T00:19:41.622Z,99.90
2018-10-03T00:24:45.860Z,99.90
2018-10-03T00:29:50.122Z,99.90
2018-10-03T00:34:54.342Z,99.90
2018-10-03T00:39:58.621Z,99.90
2018-10-03T00:45:02.797Z,99.90
2018-10-03T00:50:06.981Z,99.90
2018-10-03T00:55:11.189Z,99.90
2018-10-03T01:00:15.739Z,99.90
2018-10-03T01:05:19.939Z,99.90
2018-10-03T01:10:24.179Z,99.90
2018-10-03T01:15:28.511Z,99.90
2018-10-03T01:20:32.755Z,99.90
2018-10-03T01:25:36.991Z,99.90
2018-10-03T01:30:41.200Z,99.90
2018-10-03T01:35:45.339Z,99.90
2018-10-03T01:40:49.554Z,99.90
2018-10-03T01:45:54.011Z,99.90
2018-10-03T01:50:58.314Z,99.90
2018-10-03T01:56:02.548Z,99.90
2018-10-03T02:01:06.706Z,99.90
2018-10-03T02:06:10.955Z,99.90
2018-10-03T02:11:15.133Z,99.90
2018-10-03T02:16:19.372Z,99.90
2018-10-03T02:21:23.737Z,99.90
2018-10-03T02:26:28.083Z,99.90
2018-10-03T02:31:32.435Z,99.90
2018-10-03T02:36:36.603Z,99.90
2018-10-03T02:41:40.815Z,99.90
2018-10-03T02:46:45.045Z,99.90
2018-10-03T02:51:49.850Z,99.90
2018-10-03T02:56:54.056Z,99.90
2018-10-03T03:01:58.325Z,99.90
2018-10-03T03:07:02.507Z,99.90
2018-10-03T03:12:06.847Z,99.90
2018-10-03T03:17:11.050Z,99.90
2018-10-03T03:22:22.439Z,99.90
2018-10-03T03:27:26.618Z,99.90
2018-10-03T03:32:30.884Z,99.90
2018-10-03T03:37:35.059Z,99.90
2018-10-03T03:42:39.255Z,99.90
2018-10-03T03:47:43.541Z,99.90
2018-10-03T03:52:47.762Z,99.90
2018-10-03T03:57:52.001Z,99.90
2018-10-03T04:02:56.271Z,99.90
2018-10-03T04:08:00.458Z,99.90
2018-10-03T04:13:04.942Z,99.90
2018-10-03T04:18:09.123Z,99.90
2018-10-03T04:23:13.337Z,99.90
2018-10-03T04:28:17.519Z,99.90
2018-10-03T04:33:21.754Z,99.90
2018-10-03T04:38:25.989Z,99.90
2018-10-03T04:43:30.152Z,99.90
2018-10-03T04:48:34.482Z,99.90
2018-10-03T04:53:39.005Z,99.90
2018-10-03T04:58:43.368Z,99.90
2018-10-03T05:03:47.775Z,99.90
2018-10-03T05:08:51.941Z,99.90
2018-10-03T05:13:56.466Z,99.90
2018-10-03T05:19:00.880Z,99.90
2018-10-03T05:24:05.173Z,99.90
2018-10-03T05:29:09.583Z,99.90
2018-10-03T05:34:13.983Z,99.90
2018-10-03T05:39:18.620Z,99.90
2018-10-03T05:44:22.809Z,99.90
2018-10-03T05:49:27.078Z,99.90
2018-10-03T05:54:31.372Z,99.90
2018-10-03T05:59:35.626Z,99.90
2018-10-03T06:04:39.852Z,99.90
2018-10-03T06:09:44.040Z,99.90
2018-10-03T06:14:48.264Z,99.90
2018-10-03T06:19:53.081Z,99.90
2018-10-03T06:24:57.351Z,99.90
2018-10-03T06:30:01.642Z,99.90
2018-10-03T06:35:06.146Z,99.90
2018-10-03T06:40:10.357Z,99.90
2018-10-03T06:45:14.621Z,99.90
2018-10-03T06:50:18.965Z,99.90
2018-10-03T06:55:23.340Z,99.90
2018-10-03T07:00:27.760Z,99.90
2018-10-03T07:05:31.948Z,99.90
2018-10-03T07:10:36.143Z,99.90
2018-10-03T07:15:40.350Z,99.90
2018-10-03T07:20:44.587Z,99.90
2018-10-03T07:25:48.847Z,99.90
2018-10-03T07:30:53.005Z,99.90
2018-10-03T07:35:57.198Z,99.90
2018-10-03T07:41:01.379Z,99.90
2018-10-03T07:46:05.546Z,99.90
2018-10-03T07:51:09.742Z,99.90
2018-10-03T07:56:13.965Z,99.90
2018-10-03T08:01:18.248Z,99.90
2018-10-03T08:06:22.478Z,99.90
2018-10-03T08:11:26.847Z,99.90
2018-10-03T08:16:31.180Z,99.90
2018-10-03T08:21:35.360Z,99.90
2018-10-03T08:26:39.530Z,99.90
2018-10-03T08:31:43.800Z,99.90
2018-10-03T08:36:48.166Z,99.90
2018-10-03T08:41:52.344Z,99.90
2018-10-03T08:46:56.601Z,99.90
2018-10-03T08:52:00.992Z,99.90
2018-10-03T08:57:08.659Z,99.90
2018-10-03T09:02:12.898Z,99.90
2018-10-03T09:07:17.485Z,99.90
2018-10-03T09:12:21.787Z,99.90
2018-10-03T09:17:25.960Z,99.90
2018-10-03T09:22:30.469Z,99.90
2018-10-03T09:27:34.756Z,99.90
2018-10-03T09:32:39.004Z,99.90
2018-10-03T09:37:43.270Z,99.90
2018-10-03T09:42:47.614Z,99.90
2018-10-03T09:47:51.965Z,99.90
2018-10-03T09:52:56.429Z,99.90
2018-10-03T09:58:00.646Z,99.10
2018-10-03T10:03:04.852Z,98.60
2018-10-03T10:08:09.069Z,99.50
2018-10-03T10:13:13.494Z,98.50
2018-10-03T10:18:17.707Z,99.90
2018-10-03T10:23:21.904Z,99.30
2018-10-03T10:28:26.185Z,99.30
2018-10-03T10:33:30.572Z,98.20
2018-10-03T10:38:35.033Z,96.60
2018-10-03T10:43:39.377Z,99.30
2018-10-03T10:48:43.594Z,96.50
2018-10-03T10:53:48.020Z,98.60
2018-10-03T10:58:52.389Z,97.10
2018-10-03T11:03:56.629Z,96.90
2018-10-03T11:09:00.945Z,97.50
2018-10-03T11:14:05.185Z,97.00
2018-10-03T11:19:09.758Z,95.50
2018-10-03T11:24:15.335Z,96.50
2018-10-03T11:29:19.416Z,95.30
2018-10-03T11:34:23.887Z,95.70
2018-10-03T11:39:28.415Z,95.50
2018-10-03T11:44:32.770Z,95.70
2018-10-03T11:49:37.016Z,95.40
2018-10-03T11:54:41.223Z,93.70
2018-10-03T11:59:45.634Z,94.30
2018-10-03T12:04:50.496Z,94.30
2018-10-03T12:09:55.124Z,94.60
2018-10-03T12:14:59.401Z,94.20
2018-10-03T12:20:03.763Z,93.70
2018-10-03T12:25:08.150Z,94.00
2018-10-03T12:30:12.401Z,93.60
2018-10-03T12:35:22.075Z,93.90
2018-10-03T12:40:26.401Z,93.40
2018-10-03T12:45:30.736Z,92.70
2018-10-03T12:50:35.479Z,93.90
2018-10-03T12:55:40.004Z,94.70
2018-10-03T13:00:44.380Z,92.90
2018-10-03T13:05:48.826Z,93.80
2018-10-03T13:10:53.525Z,93.10
2018-10-03T13:15:58.287Z,94.50
2018-10-03T13:21:02.501Z,94.70
2018-10-03T13:26:11.288Z,93.10
2018-10-03T13:31:36.854Z,92.50
2018-10-03T13:36:48.574Z,93.60
2018-10-03T13:41:54.521Z,92.30
2018-10-03T13:46:59.500Z,91.50
2018-10-03T13:52:04.215Z,92.20
2018-10-03T13:57:08.751Z,91.30
2018-10-03T14:02:13.709Z,91.40
2018-10-03T14:07:18.113Z,92.60
2018-10-03T14:12:22.361Z,92.10
2018-10-03T14:17:26.720Z,91.90
2018-10-03T14:22:30.933Z,92.70
2018-10-03T14:27:35.112Z,92.30
2018-10-03T14:32:39.697Z,91.60
2018-10-03T14:37:44.107Z,92.40
2018-10-03T14:42:48.667Z,91.60
2018-10-03T14:47:53.168Z,92.20
2018-10-03T14:52:58.213Z,92.90
2018-10-03T14:58:03.123Z,92.40
2018-10-03T15:03:07.548Z,92.30
2018-10-03T15:08:11.717Z,92.60
2018-10-03T15:13:16.194Z,92.10
2018-10-03T15:18:20.616Z,92.10
2018-10-03T15:23:24.878Z,92.90
2018-10-03T15:28:29.255Z,92.40
2018-10-03T15:33:33.492Z,92.10
2018-10-03T15:38:37.743Z,92.60
2018-10-03T15:43:41.995Z,92.50
2018-10-03T15:48:46.377Z,93.80
2018-10-03T15:53:51.053Z,92.30
2018-10-03T15:58:55.991Z,92.50
2018-10-03T16:04:00.749Z,92.50
2018-10-03T16:09:05.754Z,92.70
2018-10-03T16:14:10.086Z,93.10
2018-10-03T16:19:14.355Z,93.20
2018-10-03T16:24:18.541Z,92.50
2018-10-03T16:29:23.711Z,92.80
2018-10-03T16:34:28.096Z,92.90
2018-10-03T16:39:32.388Z,92.80
2018-10-03T16:44:37.035Z,93.30
2018-10-03T16:49:41.418Z,93.40
2018-10-03T16:54:50.389Z,93.40
2018-10-03T16:59:54.645Z,94.20
2018-10-03T17:04:59.536Z,94.70
2018-10-03T17:10:05.872Z,95.10
2018-10-03T17:15:10.162Z,95.00
2018-10-03T17:20:14.340Z,95.20
2018-10-03T17:25:18.738Z,95.50
2018-10-03T17:30:23.119Z,95.70
2018-10-03T17:35:27.299Z,95.80
2018-10-03T17:40:33.238Z,96.00
2018-10-03T17:45:37.495Z,96.30
2018-10-03T17:50:41.809Z,96.50
2018-10-03T17:55:46.743Z,96.80
2018-10-03T18:00:51.695Z,96.70
2018-10-03T18:05:56.014Z,96.60
2018-10-03T18:11:00.218Z,96.70
2018-10-03T18:16:04.486Z,96.70
2018-10-03T18:21:08.856Z,96.80
2018-10-03T18:26:13.387Z,96.80
2018-10-03T18:31:18.276Z,96.80
2018-10-03T18:36:23.621Z,97.20
2018-10-03T18:41:30.945Z,97.40
2018-10-03T18:46:35.644Z,97.50
2018-10-03T18:51:39.940Z,97.40
2018-10-03T18:56:44.273Z,97.40
2018-10-03T19:01:48.976Z,97.70
2018-10-03T19:06:53.900Z,97.40
2018-10-03T19:11:59.492Z,97.60
2018-10-03T19:17:13.537Z,97.90
2018-10-03T19:22:18.880Z,98.00
2018-10-03T19:27:23.258Z,98.30
2018-10-03T19:32:29.354Z,98.20
2018-10-03T19:37:35.116Z,98.40
2018-10-03T19:42:40.678Z,98.70
2018-10-03T19:47:46.479Z,98.60
2018-10-03T19:52:50.709Z,98.90
2018-10-03T19:57:56.241Z,98.70
2018-10-03T20:03:01.205Z,98.50
2018-10-03T20:08:05.777Z,98.70
2018-10-03T20:13:10.486Z,98.90
2018-10-03T20:18:14.726Z,98.80
2018-10-03T20:23:19.179Z,98.80
2018-10-03T20:28:23.445Z,99.60
2018-10-03T20:33:27.761Z,99.50
2018-10-03T20:38:32.072Z,98.80
2018-10-03T20:43:36.716Z,99.20
2018-10-03T20:48:41.100Z,99.20
2018-10-03T20:53:45.370Z,99.30
2018-10-03T20:58:49.622Z,99.50
2018-10-03T21:03:53.815Z,99.50
2018-10-03T21:08:58.060Z,99.30
2018-10-03T21:14:02.233Z,99.60
2018-10-03T21:19:07.010Z,99.90
2018-10-03T21:24:11.213Z,99.80
2018-10-03T21:29:15.389Z,99.70
2018-10-03T21:34:19.586Z,99.60
2018-10-03T21:39:23.979Z,99.80
2018-10-03T21:44:28.341Z,99.90
2018-10-03T21:49:32.585Z,99.90
2018-10-03T21:54:36.835Z,99.90
2018-10-03T21:59:40.973Z,99.90
2018-10-03T22:04:45.269Z,99.90
2018-10-03T22:09:49.413Z,99.90
2018-10-03T22:14:53.657Z,99.90
2018-10-03T22:19:58.003Z,99.90
2018-10-03T22:25:02.184Z,99.90
2018-10-03T22:30:06.563Z,99.90
2018-10-03T22:35:10.953Z,99.90
2018-10-03T22:40:15.108Z,99.90
2018-10-03T22:45:19.329Z,99.90
2018-10-03T22:50:23.502Z,99.90
2018-10-03T22:55:27.676Z,99.90
2018-10-03T23:00:31.920Z,99.90
2018-10-03T23:05:36.205Z,99.90
2018-10-03T23:10:40.418Z,99.90
2018-10-03T23:15:45.696Z,99.90
2018-10-03T23:20:49.909Z,99.90
2018-10-03T23:25:54.163Z,99.90
2018-10-03T23:30:58.495Z,99.90
2018-10-03T23:36:02.680Z,99.90
2018-10-03T23:41:06.994Z,99.90
2018-10-03T23:46:11.257Z,99.90
2018-10-03T23:51:15.401Z,99.90
2018-10-03T23:56:19.571Z,99.90
